F/V Mailys Charlie — FMIW — position and weather

sailwx.info

Track history (hours):
 
Tides and Currents Weather Stations Pressure Air Temp Water Temp Dewpoint Dewpoint Depression Visibility Wind Speed Wind Dir Waves Ship Positions

F/V Mailys Charlie

Last reported at 2014-Oct-31 05:33 UTC. Time now 2014-Oct-31 20:11 UTC.
Position N 47°21' W 002°31'.

Length 19 m.

Type: Fishing. MMSI: 228240800.

Date/timePositionNaut miles runAvg speedWind from/ knotsBaromVisibWave heightAir tempDewpointWater temp
2014-Oct-31 05:33N 47°21' W 002°31'0 0.0
2014-Oct-31 02:11N 47°21' W 002°31'0 0.0
2014-Oct-31 01:33N 47°21' W 002°31'0 0.0
2014-Oct-31 00:33N 47°21' W 002°31'0 0.0
2014-Oct-30 23:06N 47°21' W 002°31'0 0.0
2014-Oct-30 22:19N 47°21' W 002°31'0 0.0
2014-Oct-30 21:10N 47°21' W 002°31'9 0.8
2014-Oct-30 09:30N 47°19' W 002°44'92 8.4
2014-Oct-29 22:32N 47°49' W 004°53'8 1.7
2014-Oct-29 17:32N 47°49' W 004°41'10 7.8
2014-Oct-29 16:18N 47°41' W 004°32'18 9.5
2014-Oct-29 14:24N 47°31' W 004°10'9 9.5
2014-Oct-29 13:27N 47°28' W 003°57'7 7.5
2014-Oct-29 12:33N 47°25' W 003°48'2 2.0
2014-Oct-29 11:33N 47°23' W 003°47'4 4.0
2014-Oct-29 10:33N 47°20' W 003°42'10 9.3
2014-Oct-29 09:32N 47°18' W 003°29'9 9.2
2014-Oct-29 08:32N 47°16' W 003°16'9 9.5
2014-Oct-29 07:33N 47°16' W 003°02'10 9.3
2014-Oct-29 06:31N 47°18' W 002°48'9 9.1
2014-Oct-29 05:33N 47°20' W 002°36'3 3.3
2014-Oct-29 04:31N 47°21' W 002°31'2 2.0
2014-Oct-29 03:28N 47°20' W 002°34'9 9.7
2014-Oct-29 02:33N 47°19' W 002°47'9 9.4
2014-Oct-29 01:33N 47°16' W 003°00'9 8.6
2014-Oct-29 00:33N 47°16' W 003°13'9 8.5
2014-Oct-28 23:33N 47°16' W 003°25'5 1.1
2014-Oct-28 19:14N 47°12' W 003°27'7 0.2
2014-Oct-27 12:26N 47°11' W 003°16'14 7.5
2014-Oct-27 10:33N 47°15' W 002°57'8 7.9
2014-Oct-27 09:33N 47°18' W 002°46'8 7.5
2014-Oct-27 08:33N 47°20' W 002°35'3 3.0
2014-Oct-27 07:33N 47°21' W 002°31'1 0.6
2014-Oct-27 06:30N 47°20' W 002°32'5 5.5
2014-Oct-27 05:33N 47°19' W 002°39'8 7.4
2014-Oct-27 04:29N 47°17' W 002°50'7 8.1
2014-Oct-27 03:33N 47°16' W 003°01'11 7.9
2014-Oct-27 02:10N 47°13' W 003°17'5 7.5
2014-Oct-27 01:28N 47°12' W 003°24'14 0.7
2014-Oct-26 06:27N 47°26' W 003°21'  
2014-Oct-22 03:32N 47°23' W 003°09'6 6.4
2014-Oct-22 02:33N 47°20' W 003°00'6 6.3
2014-Oct-22 01:33N 47°18' W 002°52'6 6.3
2014-Oct-22 00:33N 47°19' W 002°43'7 6.4
2014-Oct-21 23:28N 47°20' W 002°32'22 1.3
2014-Oct-21 06:32N 47°22' W 003°05'  
Track history (hours):
 
Tides and Currents Weather Stations Pressure Air Temp Water Temp Dewpoint Dewpoint Depression Visibility Wind Speed Wind Dir Waves Ship Positions

F/V Mailys Charlie

Last reported at 2014-Oct-31 05:33 UTC. Time now 2014-Oct-31 20:11 UTC.
Position N 47°21' W 002°31'.

Length 19 m.

Type: Fishing. MMSI: 228240800.

Date/timePositionNaut miles runAvg speedWind from/ knotsBaromVisibWave heightAir tempDewpointWater temp
2014-Oct-31 05:33N 47°21' W 002°31'0 0.0
2014-Oct-31 02:11N 47°21' W 002°31'0 0.0
2014-Oct-31 01:33N 47°21' W 002°31'0 0.0
2014-Oct-31 00:33N 47°21' W 002°31'0 0.0
2014-Oct-30 23:06N 47°21' W 002°31'0 0.0
2014-Oct-30 22:19N 47°21' W 002°31'0 0.0
2014-Oct-30 21:10N 47°21' W 002°31'9 0.8
2014-Oct-30 09:30N 47°19' W 002°44'92 8.4
2014-Oct-29 22:32N 47°49' W 004°53'8 1.7
2014-Oct-29 17:32N 47°49' W 004°41'10 7.8
2014-Oct-29 16:18N 47°41' W 004°32'18 9.5
2014-Oct-29 14:24N 47°31' W 004°10'9 9.5
2014-Oct-29 13:27N 47°28' W 003°57'7 7.5
2014-Oct-29 12:33N 47°25' W 003°48'2 2.0
2014-Oct-29 11:33N 47°23' W 003°47'4 4.0
2014-Oct-29 10:33N 47°20' W 003°42'10 9.3
2014-Oct-29 09:32N 47°18' W 003°29'9 9.2
2014-Oct-29 08:32N 47°16' W 003°16'9 9.5
2014-Oct-29 07:33N 47°16' W 003°02'10 9.3
2014-Oct-29 06:31N 47°18' W 002°48'9 9.1
2014-Oct-29 05:33N 47°20' W 002°36'3 3.3
2014-Oct-29 04:31N 47°21' W 002°31'2 2.0
2014-Oct-29 03:28N 47°20' W 002°34'9 9.7
2014-Oct-29 02:33N 47°19' W 002°47'9 9.4
2014-Oct-29 01:33N 47°16' W 003°00'9 8.6
2014-Oct-29 00:33N 47°16' W 003°13'9 8.5
2014-Oct-28 23:33N 47°16' W 003°25'5 1.1
2014-Oct-28 19:14N 47°12' W 003°27'7 0.2
2014-Oct-27 12:26N 47°11' W 003°16'14 7.5
2014-Oct-27 10:33N 47°15' W 002°57'8 7.9
2014-Oct-27 09:33N 47°18' W 002°46'8 7.5
2014-Oct-27 08:33N 47°20' W 002°35'3 3.0
2014-Oct-27 07:33N 47°21' W 002°31'1 0.6
2014-Oct-27 06:30N 47°20' W 002°32'5 5.5
2014-Oct-27 05:33N 47°19' W 002°39'8 7.4
2014-Oct-27 04:29N 47°17' W 002°50'7 8.1
2014-Oct-27 03:33N 47°16' W 003°01'11 7.9
2014-Oct-27 02:10N 47°13' W 003°17'5 7.5
2014-Oct-27 01:28N 47°12' W 003°24'14 0.7
2014-Oct-26 06:27N 47°26' W 003°21'  
2014-Oct-22 03:32N 47°23' W 003°09'6 6.4
2014-Oct-22 02:33N 47°20' W 003°00'6 6.3
2014-Oct-22 01:33N 47°18' W 002°52'6 6.3
2014-Oct-22 00:33N 47°19' W 002°43'7 6.4
2014-Oct-21 23:28N 47°20' W 002°32'22 1.3
2014-Oct-21 06:32N 47°22' W 003°05'  

Dump ship's entire track history